Time;durP1;ratioP1;P1;durP2;ratioP2;P2;SDS_P1;SDS_P2;PMS_P1;PMS_P2;Temp;Humidity;BMP_temperature;BMP_pressure;BME280_temperature;BME280_humidity;BME280_pressure;Samples;Min_cycle;Max_cycle;Signal;HPM_P1;HPM_P2
2022/07/03 00:47:13;;;;;;;6.18;3.70;;;;;;;17.71;68.80;100976.44;4953830;29;20133;-82
2022/07/03 00:49:46;;;;;;;7.45;3.85;;;;;;;17.74;68.69;100959.34;4956046;28;20063;-82
2022/07/03 00:52:14;;;;;;;6.18;4.00;;;;;;;17.87;67.92;100959.44;5055324;28;20120;-83
2022/07/03 00:54:45;;;;;;;7.53;3.97;;;;;;;18.07;67.25;100970.94;5055540;28;20052;-83
2022/07/03 00:57:15;;;;;;;8.82;4.22;;;;;;;18.10;66.93;100957.28;5056405;28;20045;-83
2022/07/03 00:59:43;;;;;;;6.68;4.18;;;;;;;18.08;66.81;100942.63;5056427;28;20049;-83
2022/07/03 01:02:19;;;;;;;7.30;3.97;;;;;;;18.18;66.97;100956.31;5056855;28;20056;-83
2022/07/03 01:04:52;;;;;;;8.18;4.10;;;;;;;18.16;67.22;100947.75;5055231;28;20080;-82
2022/07/03 01:07:27;;;;;;;6.55;4.32;;;;;;;18.17;67.10;100944.91;5057689;28;20049;-82
2022/07/03 01:10:13;;;;;;;5.03;3.90;;;;;;;18.08;68.23;100940.78;5057478;28;20102;-83
2022/07/03 01:12:54;;;;;;;5.90;4.13;;;;;;;17.92;68.57;100941.13;5058186;28;20176;-84
2022/07/03 01:15:36;;;;;;;8.20;4.00;;;;;;;17.88;68.77;100939.91;5058275;28;20181;-84
2022/07/03 01:18:24;;;;;;;7.43;4.03;;;;;;;17.81;69.10;100928.44;5058225;28;20128;-83
2022/07/03 01:20:58;;;;;;;7.03;3.92;;;;;;;17.77;69.19;100932.50;5058142;28;20132;-82
2022/07/03 01:23:37;;;;;;;7.22;4.28;;;;;;;17.71;70.10;100935.94;5056434;28;20140;-82
2022/07/03 01:26:09;;;;;;;7.18;3.92;;;;;;;17.71;69.74;100946.50;5054280;28;20133;-82
2022/07/03 01:28:40;;;;;;;6.63;4.03;;;;;;;17.63;70.01;100931.56;5053977;28;20365;-82
2022/07/03 01:31:09;;;;;;;6.13;4.20;;;;;;;17.59;69.96;100940.91;5054934;28;20067;-82
2022/07/03 01:33:36;;;;;;;5.63;4.18;;;;;;;17.53;70.47;100939.84;5054586;28;20099;-82
2022/07/03 01:36:06;;;;;;;6.90;4.10;;;;;;;17.45;71.25;100945.31;5054626;28;20056;-82
2022/07/03 01:38:35;;;;;;;7.38;4.18;;;;;;;17.39;72.04;100932.03;5054269;28;20057;-82
2022/07/03 01:41:04;;;;;;;6.18;4.22;;;;;;;17.31;72.72;100943.59;5054223;28;20044;-83
2022/07/03 01:43:33;;;;;;;6.60;4.13;;;;;;;17.23;72.45;100930.50;5053394;28;20041;-83
2022/07/03 01:46:01;;;;;;;7.15;4.18;;;;;;;17.20;72.80;100933.53;5053170;28;20128;-82
2022/07/03 01:48:29;;;;;;;8.48;4.00;;;;;;;17.25;72.79;100928.47;5053080;28;20052;-84
2022/07/03 01:50:58;;;;;;;8.70;4.40;;;;;;;17.24;73.48;100929.50;5052905;28;20079;-84
2022/07/03 01:53:27;;;;;;;9.80;4.70;;;;;;;17.21;73.11;100933.34;5052447;28;20057;-84
2022/07/03 01:55:57;;;;;;;7.65;4.03;;;;;;;17.23;73.11;100933.16;5053460;28;20107;-83
2022/07/03 01:58:23;;;;;;;5.80;4.38;;;;;;;17.26;72.32;100924.81;5053681;28;20111;-83
2022/07/03 02:01:01;;;;;;;7.60;4.60;;;;;;;17.25;72.57;100931.94;5053392;28;20432;-82
2022/07/03 02:03:30;;;;;;;6.18;4.10;;;;;;;17.23;72.44;100927.84;5055990;28;20076;-82
2022/07/03 02:06:05;;;;;;;8.98;4.60;;;;;;;17.21;72.41;100930.69;5056123;28;20210;-82
2022/07/03 02:08:39;;;;;;;6.47;4.25;;;;;;;17.12;72.75;100928.38;5058342;28;20080;-82
2022/07/03 02:11:11;;;;;;;9.13;4.72;;;;;;;17.07;73.51;100926.28;5058250;28;20540;-81
2022/07/03 02:13:44;;;;;;;6.00;4.32;;;;;;;16.98;73.83;100931.94;5058175;28;20049;-81
2022/07/03 02:16:19;;;;;;;6.45;4.03;;;;;;;16.88;74.21;100933.06;5058347;28;20507;-81
2022/07/03 02:18:56;;;;;;;8.55;4.20;;;;;;;16.89;74.72;100921.50;5057935;28;20084;-82
2022/07/03 02:21:27;;;;;;;6.03;4.28;;;;;;;16.85;74.77;100912.31;5056192;28;20477;-83
2022/07/03 02:24:14;;;;;;;7.55;4.15;;;;;;;16.83;74.70;100919.59;5056628;28;20100;-81
2022/07/03 02:26:42;;;;;;;6.70;4.30;;;;;;;16.84;75.14;100926.53;5055561;28;20462;-82
2022/07/03 02:29:14;;;;;;;5.47;4.28;;;;;;;16.85;74.98;100919.41;5054860;28;20060;-82
2022/07/03 02:31:44;;;;;;;7.93;4.87;;;;;;;16.85;74.38;100933.44;5055662;28;20045;-82
2022/07/03 02:34:16;;;;;;;6.13;4.50;;;;;;;16.81;74.55;100928.72;5055652;28;20318;-82
2022/07/03 02:36:46;;;;;;;6.07;4.07;;;;;;;16.82;74.64;100928.53;5055832;28;20087;-83
2022/07/03 02:39:20;;;;;;;5.07;4.00;;;;;;;16.78;74.84;100926.47;5056642;28;20080;-82
2022/07/03 02:41:50;;;;;;;6.78;4.40;;;;;;;16.75;74.70;100932.13;5056529;28;20057;-82
2022/07/03 02:44:24;;;;;;;9.77;4.35;;;;;;;16.73;74.50;100934.94;5057469;28;20072;-82
2022/07/03 02:47:01;;;;;;;7.15;4.22;;;;;;;16.71;74.48;100930.88;5056860;28;20080;-83
2022/07/03 02:49:41;;;;;;;8.73;4.30;;;;;;;16.73;74.25;100937.59;5054953;28;20136;-82
2022/07/03 02:52:15;;;;;;;7.18;3.90;;;;;;;16.68;74.61;100921.47;5055580;28;20049;-82
2022/07/03 02:54:46;;;;;;;6.55;4.20;;;;;;;16.69;74.60;100923.13;5055951;28;20052;-82
2022/07/03 02:57:15;;;;;;;9.88;4.63;;;;;;;16.63;74.99;100931.78;5056290;28;20511;-82
2022/07/03 02:59:57;;;;;;;6.55;4.10;;;;;;;16.59;74.77;100925.22;5055211;28;20053;-82
2022/07/03 03:02:43;;;;;;;8.23;4.57;;;;;;;16.58;75.19;100921.75;5056757;28;20053;-82
2022/07/03 03:05:14;;;;;;;6.20;4.25;;;;;;;16.55;75.97;100923.97;5059675;28;20099;-81
2022/07/03 03:07:56;;;;;;;8.05;4.47;;;;;;;16.48;76.73;100925.75;5061094;28;20060;-81
2022/07/03 03:10:22;;;;;;;7.50;4.25;;;;;;;16.50;76.61;100923.72;5059464;28;20048;-82
2022/07/03 03:12:59;;;;;;;6.10;3.97;;;;;;;16.49;76.69;100922.09;5059316;28;20084;-82
2022/07/03 03:15:30;;;;;;;8.77;4.18;;;;;;;16.46;77.30;100922.47;5059205;28;20178;-82
2022/07/03 03:18:02;;;;;;;7.15;4.22;;;;;;;16.47;77.85;100932.03;5058405;28;20467;-82
2022/07/03 03:20:32;;;;;;;8.88;4.35;;;;;;;16.42;78.11;100921.19;5059449;28;20132;-82
2022/07/03 03:23:25;;;;;;;6.57;4.25;;;;;;;16.38;78.27;100926.03;5062805;28;20101;-82
2022/07/03 03:25:53;;;;;;;9.15;4.38;;;;;;;16.26;78.00;100923.06;5060231;28;20163;-82
2022/07/03 03:28:20;;;;;;;5.53;4.07;;;;;;;16.31;77.85;100925.13;5064646;28;20052;-82
2022/07/03 03:30:48;;;;;;;6.95;4.35;;;;;;;16.27;78.06;100929.97;5063711;28;20095;-82
2022/07/03 03:33:17;;;;;;;8.00;4.30;;;;;;;16.24;78.44;100930.34;5064704;28;20064;-81
2022/07/03 03:35:44;;;;;;;8.35;4.20;;;;;;;16.21;78.80;100930.72;5057893;28;20048;-81
2022/07/03 03:38:12;;;;;;;5.50;4.05;;;;;;;16.20;78.25;100934.34;5057882;28;20148;-81
2022/07/03 03:40:40;;;;;;;6.03;4.00;;;;;;;16.21;78.18;100925.44;5056581;28;20084;-83
2022/07/03 03:43:07;;;;;;;9.00;4.25;;;;;;;16.26;78.07;100933.63;5058821;28;20051;-83
2022/07/03 03:45:34;;;;;;;5.68;4.18;;;;;;;16.22;78.55;100927.06;5057496;28;20053;-83
2022/07/03 03:48:01;;;;;;;5.75;4.22;;;;;;;16.31;78.49;100934.88;5056968;28;20044;-82
2022/07/03 03:50:32;;;;;;;7.43;4.07;;;;;;;16.31;77.77;100938.34;5056802;28;20081;-82
2022/07/03 03:53:00;;;;;;;6.95;4.03;;;;;;;16.39;77.16;100945.34;5055832;28;20072;-83
2022/07/03 03:55:27;;;;;;;12.00;4.63;;;;;;;16.54;76.84;100951.41;5054949;28;20396;-81
2022/07/03 03:57:53;;;;;;;8.82;4.13;;;;;;;16.71;75.93;100957.28;5056082;28;20068;-82
2022/07/03 04:00:20;;;;;;;7.35;4.28;;;;;;;16.81;75.59;100947.22;5064614;28;20083;-82
2022/07/03 04:02:46;;;;;;;7.47;4.00;;;;;;;16.86;75.65;100958.88;5065859;28;20137;-82
2022/07/03 04:05:13;;;;;;;5.70;3.80;;;;;;;16.68;75.96;100942.63;5067309;28;20068;-81
2022/07/03 04:07:41;;;;;;;5.00;3.70;;;;;;;16.84;76.26;100952.13;5066594;28;20049;-81
2022/07/03 04:10:08;;;;;;;9.05;3.95;;;;;;;17.25;74.89;100955.75;5063059;28;20084;-81
2022/07/03 04:12:35;;;;;;;5.53;4.10;;;;;;;17.49;73.88;100953.66;5064243;28;20088;-80
2022/07/03 04:15:01;;;;;;;6.25;4.07;;;;;;;17.40;74.21;100958.31;5061526;28;20059;-83
2022/07/03 04:17:28;;;;;;;8.30;4.15;;;;;;;17.32;74.33;100966.38;5059012;28;20183;-82
2022/07/03 04:19:56;;;;;;;9.00;4.32;;;;;;;17.33;73.76;100967.19;5058932;28;20076;-81
2022/07/03 04:22:22;;;;;;;6.80;4.20;;;;;;;17.40;73.53;100974.19;5057885;28;20540;-81
2022/07/03 04:24:50;;;;;;;7.18;4.00;;;;;;;17.69;72.45;100975.00;5057032;28;20076;-81
2022/07/03 04:27:17;;;;;;;7.43;3.85;;;;;;;17.64;71.44;100975.53;5055969;28;20076;-81
2022/07/03 04:29:44;;;;;;;8.02;3.95;;;;;;;17.49;72.33;100970.34;5055060;28;20128;-81
2022/07/03 04:32:10;;;;;;;7.32;3.95;;;;;;;17.57;72.16;100977.31;5057211;28;20059;-80
2022/07/03 04:34:37;;;;;;;4.78;3.70;;;;;;;17.65;71.66;100985.16;5062153;28;20072;-81
2022/07/03 04:37:04;;;;;;;8.40;4.18;;;;;;;17.70;71.45;100979.28;5065000;28;20053;-80
2022/07/03 04:39:33;;;;;;;8.13;4.05;;;;;;;17.74;70.97;100976.06;5063478;28;20077;-80
2022/07/03 04:42:01;;;;;;;7.68;3.83;;;;;;;17.68;71.43;100986.59;5064152;28;20113;-81
2022/07/03 04:44:28;;;;;;;7.25;3.97;;;;;;;17.87;71.48;100999.16;5063911;28;20056;-81
2022/07/03 04:46:55;;;;;;;11.65;3.92;;;;;;;17.72;71.15;101009.84;5062451;28;20045;-82
2022/07/03 04:49:21;;;;;;;9.80;4.03;;;;;;;17.68;72.40;100998.00;5061518;28;20048;-83
2022/07/03 04:51:48;;;;;;;6.88;3.92;;;;;;;17.71;72.64;101000.25;5065111;28;20057;-82
2022/07/03 04:54:14;;;;;;;8.50;3.97;;;;;;;18.05;72.63;101015.31;5063149;28;20041;-84
2022/07/03 04:56:41;;;;;;;11.80;5.10;;;;;;;18.98;68.10;101015.69;5064071;28;20048;-83
2022/07/03 04:59:09;;;;;;;10.45;4.10;;;;;;;20.04;63.47;101006.66;5061566;28;20081;-83
2022/07/03 05:01:36;;;;;;;12.70;4.97;;;;;;;20.64;61.54;101012.56;5062257;28;20052;-83
2022/07/03 05:04:02;;;;;;;10.35;4.90;;;;;;;21.05;59.78;101011.28;5063418;28;20083;-82
2022/07/03 05:06:29;;;;;;;15.50;5.32;;;;;;;21.65;58.01;101016.97;5065379;28;20045;-82
2022/07/03 05:08:56;;;;;;;10.60;5.03;;;;;;;21.47;58.19;101002.59;5063869;28;20128;-83
2022/07/03 05:11:23;;;;;;;15.20;5.15;;;;;;;21.58;57.73;101002.91;5061992;28;20088;-83
2022/07/03 05:13:50;;;;;;;11.32;4.47;;;;;;;21.27;57.75;101001.16;5060204;28;20091;-83
2022/07/03 05:16:18;;;;;;;15.32;5.22;;;;;;;21.58;58.29;101014.38;5060024;28;20066;-82
2022/07/03 05:18:44;;;;;;;15.15;5.03;;;;;;;21.88;56.73;101008.34;5059755;28;20114;-83
2022/07/03 05:21:11;;;;;;;8.95;4.60;;;;;;;22.63;55.27;101012.38;5063926;28;20052;-83
2022/07/03 05:23:37;;;;;;;16.67;4.97;;;;;;;23.32;53.20;101018.13;5065653;28;20068;-82
2022/07/03 05:26:04;;;;;;;17.45;5.20;;;;;;;23.58;52.35;101019.59;5068378;28;20044;-83
2022/07/03 05:28:31;;;;;;;12.38;4.82;;;;;;;22.94;53.76;101016.69;5067239;28;20084;-81
2022/07/03 05:30:57;;;;;;;13.80;5.25;;;;;;;24.07;51.76;101021.75;5067660;28;20138;-82
2022/07/03 05:33:25;;;;;;;13.25;4.88;;;;;;;25.07;49.08;101028.47;5066502;28;20076;-82
2022/07/03 05:35:54;;;;;;;18.17;5.50;;;;;;;25.81;47.42;101039.03;5064715;28;20045;-83
2022/07/03 05:41:01;;;;;;;10.80;5.50;;;;;;;25.46;47.19;101048.16;5063080;28;20049;-82
2022/07/03 05:43:28;;;;;;;12.98;4.88;;;;;;;24.64;48.77;101035.19;5062164;28;20049;-82
2022/07/03 05:45:54;;;;;;;8.13;4.65;;;;;;;25.14;48.40;101038.00;5064818;28;20048;-82
2022/07/03 05:48:21;;;;;;;6.75;3.95;;;;;;;24.96;47.84;101026.72;5061366;28;20087;-80
2022/07/03 05:50:49;;;;;;;7.07;4.10;;;;;;;24.88;48.14;101030.56;5063796;28;20109;-82
2022/07/03 05:53:16;;;;;;;5.45;3.75;;;;;;;25.56;47.12;101042.94;5061436;28;20056;-80
2022/07/03 05:55:43;;;;;;;8.10;3.97;;;;;;;24.41;48.85;101019.25;5059655;28;20492;-83
2022/07/03 05:58:09;;;;;;;6.88;4.00;;;;;;;24.96;47.79;101040.91;5059641;28;20080;-83
2022/07/03 06:00:36;;;;;;;8.73;4.20;;;;;;;25.11;47.27;101043.81;5061001;28;20092;-83
2022/07/03 06:03:03;;;;;;;6.55;4.75;;;;;;;25.32;46.18;101053.03;5060791;28;20049;-84
2022/07/03 06:05:30;;;;;;;9.48;5.72;;;;;;;25.19;46.63;101039.94;5061615;28;20056;-83
2022/07/03 06:07:57;;;;;;;11.52;5.80;;;;;;;25.70;45.53;101038.06;5061818;28;20053;-83
2022/07/03 06:10:24;;;;;;;12.18;5.72;;;;;;;25.84;45.48;101043.91;5060591;28;20079;-83
2022/07/03 06:12:51;;;;;;;9.77;5.47;;;;;;;25.42;46.87;101036.31;5058692;28;20137;-83
2022/07/03 06:15:22;;;;;;;9.88;5.10;;;;;;;26.08;45.59;101046.09;5058195;28;20087;-83
2022/07/03 06:17:52;;;;;;;9.27;5.70;;;;;;;26.13;44.93;101043.50;5059134;28;20516;-83
2022/07/03 06:20:37;;;;;;;9.35;5.55;;;;;;;26.39;44.82;101051.91;5088625;23;20114;-81
2022/07/03 06:23:09;;;;;;;11.70;5.55;;;;;;;26.54;45.12;101046.69;5080070;28;20106;-81
2022/07/03 06:28:44;;;;;;;10.48;6.00;;;;;;;27.87;41.50;101062.91;5077188;28;20334;-83
2022/07/03 06:31:24;;;;;;;;;;;;;;;28.29;40.71;101075.53;5080975;28;20180;-83
2022/07/03 06:33:53;;;;;;;9.48;5.88;;;;;;;27.89;41.34;101066.13;5075212;28;20069;-84
2022/07/03 06:36:44;;;;;;;9.63;5.50;;;;;;;27.15;42.14;101058.06;5075930;28;20400;-83
2022/07/03 06:39:17;;;;;;;9.73;5.10;;;;;;;27.25;41.75;101066.22;5076034;28;20119;-84
2022/07/03 06:41:44;;;;;;;7.85;5.90;;;;;;;25.90;42.97;101043.72;5079255;28;20059;-85
2022/07/03 06:44:13;;;;;;;8.18;5.28;;;;;;;26.30;43.12;101075.63;5079997;28;20086;-83
2022/07/03 06:46:40;;;;;;;7.03;5.40;;;;;;;26.66;42.82;101068.84;5077228;28;20109;-85
2022/07/03 06:49:06;;;;;;;7.88;5.18;;;;;;;27.20;42.76;101074.22;5076694;28;20132;-84
2022/07/03 06:51:34;;;;;;;8.30;5.28;;;;;;;27.53;41.96;101075.00;5076388;28;20140;-85
2022/07/03 06:54:00;;;;;;;9.20;4.80;;;;;;;28.09;40.79;101087.78;5079010;28;20388;-84
2022/07/03 06:56:28;;;;;;;8.82;5.07;;;;;;;27.90;41.12;101078.50;5078890;28;20463;-83
2022/07/03 06:58:55;;;;;;;8.02;4.80;;;;;;;28.23;40.28;101081.94;5076589;28;20083;-84
2022/07/03 07:01:21;;;;;;;8.57;5.55;;;;;;;28.18;40.28;101071.94;5076478;28;20226;-83
2022/07/03 07:03:48;;;;;;;7.22;5.28;;;;;;;27.08;42.38;101070.88;5077661;28;20080;-84
2022/07/03 07:06:15;;;;;;;9.48;5.10;;;;;;;28.03;40.46;101077.25;5085451;28;20501;-85
2022/07/03 07:08:41;;;;;;;8.40;4.80;;;;;;;28.57;39.90;101077.78;5083777;28;20104;-85
2022/07/03 07:11:08;;;;;;;7.10;5.10;;;;;;;27.60;41.06;101063.00;5083807;28;20079;-86
2022/07/03 07:13:36;;;;;;;8.45;5.40;;;;;;;26.83;42.41;101046.47;5081877;28;20516;-84
2022/07/03 07:16:03;;;;;;;8.02;5.55;;;;;;;27.39;41.69;101066.59;5081271;28;20068;-84
2022/07/03 07:18:29;;;;;;;7.03;5.00;;;;;;;27.79;41.92;101076.84;5082789;28;20084;-85
2022/07/03 07:20:56;;;;;;;13.65;5.38;;;;;;;28.04;40.03;101071.59;5082180;28;20052;-84
2022/07/03 07:23:22;;;;;;;6.07;5.38;;;;;;;27.74;41.01;101063.38;5084738;28;20199;-84
2022/07/03 07:25:49;;;;;;;6.18;4.88;;;;;;;28.11;40.44;101063.28;5084237;28;20048;-84
2022/07/03 07:28:16;;;;;;;6.82;5.03;;;;;;;27.85;40.49;101057.00;5080672;28;20083;-84
2022/07/03 07:30:44;;;;;;;8.77;5.47;;;;;;;28.48;39.41;101071.28;5080559;28;20049;-85
2022/07/03 07:33:12;;;;;;;7.30;4.72;;;;;;;28.60;39.18;101065.66;5083851;28;20083;-84
2022/07/03 07:35:38;;;;;;;10.40;4.90;;;;;;;29.10;39.40;101067.66;5083798;28;20044;-85
2022/07/03 07:38:05;;;;;;;6.25;4.70;;;;;;;28.88;37.91;101075.97;5084815;28;20068;-84
2022/07/03 07:40:31;;;;;;;9.27;4.90;;;;;;;29.97;38.17;101085.38;5082853;28;20135;-84
2022/07/03 07:42:58;;;;;;;5.55;4.82;;;;;;;29.73;38.32;101075.47;5084665;28;20454;-84
2022/07/03 07:45:25;;;;;;;7.53;4.80;;;;;;;29.73;37.40;101084.38;5089167;28;20044;-82
2022/07/03 07:47:55;;;;;;;8.20;5.00;;;;;;;29.56;37.55;101078.47;5091924;28;20048;-79
2022/07/03 07:50:22;;;;;;;5.60;4.10;;;;;;;29.26;38.37;101058.50;5089139;28;20056;-83
2022/07/03 07:52:48;;;;;;;5.30;4.35;;;;;;;28.59;38.02;101069.44;5086752;28;20056;-82
2022/07/03 07:55:15;;;;;;;5.15;4.63;;;;;;;29.25;37.06;101062.28;5090704;28;20188;-85
2022/07/03 07:57:42;;;;;;;7.60;4.20;;;;;;;28.71;37.93;101062.75;5092910;28;20059;-82
2022/07/03 08:00:11;;;;;;;5.05;4.20;;;;;;;28.47;38.28;101069.66;5092362;28;20048;-82
2022/07/03 08:05:36;;;;;;;8.60;3.50;;;;;;;28.55;37.57;101063.75;5093100;28;20070;-83
2022/07/03 08:08:04;;;;;;;5.43;3.80;;;;;;;28.04;38.31;101054.66;5092778;28;20053;-83
2022/07/03 08:10:34;;;;;;;7.88;3.60;;;;;;;28.56;38.20;101059.19;5087975;28;20051;-84
2022/07/03 08:13:01;;;;;;;6.85;3.88;;;;;;;28.37;38.53;101054.28;5089695;28;20071;-82
2022/07/03 08:15:28;;;;;;;4.63;3.35;;;;;;;28.38;37.40;101050.50;5087140;28;20044;-82
2022/07/03 08:17:54;;;;;;;7.80;3.50;;;;;;;29.10;36.64;101058.78;5089368;28;20052;-82
2022/07/03 08:20:21;;;;;;;6.78;3.30;;;;;;;29.29;36.17;101057.16;5090852;28;20596;-83
2022/07/03 08:22:49;;;;;;;7.03;3.42;;;;;;;28.73;35.70;101059.78;5086105;28;20068;-84
2022/07/03 08:25:16;;;;;;;5.68;3.38;;;;;;;29.13;35.25;101056.34;5087049;28;20164;-84
2022/07/03 08:27:43;;;;;;;4.78;3.13;;;;;;;28.71;35.54;101062.75;5084828;28;20083;-84
2022/07/03 08:30:10;;;;;;;5.20;3.30;;;;;;;29.13;36.22;101069.00;5083337;28;20052;-83
2022/07/03 08:32:36;;;;;;;5.55;3.20;;;;;;;29.32;35.66;101062.78;5082825;28;20140;-83
2022/07/03 08:35:03;;;;;;;5.47;3.20;;;;;;;29.12;35.70;101070.09;5083385;28;20104;-83
2022/07/03 08:37:30;;;;;;;5.18;3.28;;;;;;;28.53;36.18;101060.53;5085802;28;20083;-84
2022/07/03 08:40:01;;;;;;;6.75;3.30;;;;;;;28.88;35.68;101069.78;5083432;28;20102;-83
2022/07/03 08:42:30;;;;;;;5.20;3.17;;;;;;;29.00;35.49;101076.53;5062283;28;20068;-84
2022/07/03 08:44:58;;;;;;;3.42;2.92;;;;;;;29.25;35.74;101059.59;5059496;28;20080;-84
2022/07/03 08:47:27;;;;;;;3.33;2.70;;;;;;;29.41;35.04;101063.09;5060743;28;20088;-83
2022/07/03 08:49:55;;;;;;;4.03;3.10;;;;;;;29.38;34.99;101050.94;5062332;28;20081;-83
2022/07/03 08:52:23;;;;;;;5.47;3.28;;;;;;;29.42;35.79;101063.91;5063631;28;20048;-82
2022/07/03 08:54:50;;;;;;;6.45;3.17;;;;;;;29.80;35.31;101062.50;5061672;28;20085;-82
2022/07/03 08:57:19;;;;;;;5.13;3.10;;;;;;;29.53;35.64;101057.44;5062641;28;20081;-83
2022/07/03 08:59:52;;;;;;;8.10;3.20;;;;;;;29.09;35.62;101047.19;5062847;28;20091;-82
2022/07/03 09:02:19;;;;;;;7.47;3.47;;;;;;;29.03;35.77;101054.44;5064133;28;20076;-82
2022/07/03 09:04:47;;;;;;;5.15;3.28;;;;;;;29.29;35.99;101052.59;5063046;28;20081;-82
2022/07/03 09:07:14;;;;;;;6.45;4.00;;;;;;;28.66;37.30;101048.44;5062130;28;20069;-81
2022/07/03 09:16:12;;;;;;;9.13;3.40;;;;;;;28.64;37.05;101050.59;5071586;28;20053;-81
2022/07/03 09:21:39;;;;;;;7.30;3.45;;;;;;;28.47;37.14;101037.34;5029798;28;20071;-84
2022/07/03 09:24:06;;;;;;;5.10;3.50;;;;;;;29.13;37.10;101047.47;5098287;22;20060;-77
2022/07/03 09:26:38;;;;;;;7.07;3.65;;;;;;;28.77;38.32;101043.91;5078795;28;20102;-84
2022/07/03 09:29:09;;;;;;;6.75;4.03;;;;;;;29.28;36.52;101039.38;5081453;28;20101;-81
2022/07/03 09:31:37;;;;;;;5.82;3.50;;;;;;;28.87;38.07;101036.66;5085363;28;20052;-80
2022/07/03 09:34:07;;;;;;;5.63;4.20;;;;;;;28.25;39.04;101039.44;5081868;28;20519;-82
2022/07/03 09:36:44;;;;;;;6.68;4.20;;;;;;;27.99;38.83;101033.09;5079018;28;20104;-81
2022/07/03 09:39:20;;;;;;;8.18;4.60;;;;;;;28.23;38.56;101044.28;5080514;28;20048;-83
2022/07/03 09:41:54;;;;;;;5.90;3.65;;;;;;;28.37;38.98;101045.38;5080394;28;20106;-83
2022/07/03 09:44:38;;;;;;;6.63;4.40;;;;;;;28.12;38.48;101075.69;5080331;28;20082;-81
2022/07/03 09:47:17;;;;;;;6.15;3.83;;;;;;;28.19;39.07;101064.69;5079741;28;20048;-84
2022/07/03 09:49:49;;;;;;;6.43;4.18;;;;;;;27.93;39.58;101051.09;5077435;28;20095;-80
2022/07/03 09:52:33;;;;;;;6.97;3.90;;;;;;;28.50;38.97;101055.66;5076965;28;20060;-82
2022/07/03 09:55:36;;;;;;;8.85;4.75;;;;;;;28.50;38.47;101031.44;5082197;28;20080;-80
2022/07/03 09:58:08;;;;;;;8.73;4.65;;;;;;;28.37;39.25;101046.19;5082529;28;20401;-81
2022/07/03 10:00:39;;;;;;;;;;;;;;;28.69;38.98;101048.72;5081309;28;20048;-83
2022/07/03 10:03:09;;;;;;;6.40;5.18;;;;;;;29.05;37.08;101038.03;5079318;28;19924;-82
2022/07/03 10:05:38;;;;;;;5.82;4.72;;;;;;;28.41;38.74;101033.84;5078979;28;20079;-83
2022/07/03 10:08:06;;;;;;;8.57;4.85;;;;;;;28.26;38.80;101043.75;5079237;28;20127;-83
2022/07/03 10:10:41;;;;;;;8.38;4.53;;;;;;;28.45;38.64;101041.38;5079990;28;20071;-83
2022/07/03 10:13:08;;;;;;;7.97;4.13;;;;;;;28.03;39.49;101040.38;5080004;28;20052;-84
2022/07/03 10:15:50;;;;;;;8.50;4.60;;;;;;;28.02;38.99;101027.19;5082622;28;20095;-84
2022/07/03 10:18:23;;;;;;;9.05;4.70;;;;;;;27.79;40.08;101031.13;5085196;28;20066;-82
2022/07/03 10:20:51;;;;;;;8.32;4.43;;;;;;;27.81;41.21;101026.31;5084305;28;20090;-84
2022/07/03 10:23:21;;;;;;;10.00;4.72;;;;;;;27.58;40.67;101032.03;5084938;28;20132;-83
2022/07/03 10:25:48;;;;;;;10.40;4.55;;;;;;;27.74;40.46;101031.09;5083216;28;20074;-82
2022/07/03 10:28:17;;;;;;;7.32;4.40;;;;;;;27.58;39.46;101026.66;5082877;28;20048;-83
2022/07/03 10:30:46;;;;;;;5.20;3.72;;;;;;;27.99;40.38;101025.84;5083462;28;20123;-82
2022/07/03 10:33:13;;;;;;;5.75;4.13;;;;;;;27.89;39.32;101019.59;5083249;28;20091;-82
2022/07/03 10:35:43;;;;;;;4.68;3.90;;;;;;;28.18;38.63;101025.41;5082317;28;20109;-83
2022/07/03 10:38:33;;;;;;;5.75;3.90;;;;;;;28.31;38.95;101030.31;5082346;28;20131;-83
2022/07/03 10:46:36;;;;;;;7.43;4.10;;;;;;;27.77;39.99;101025.22;5082642;28;20055;-83
2022/07/03 10:49:06;;;;;;;5.78;4.00;;;;;;;27.97;39.28;101030.69;5083148;28;20052;-83
2022/07/03 10:51:54;;;;;;;7.20;4.30;;;;;;;28.27;39.44;101018.47;5083043;28;20049;-84
2022/07/03 10:54:21;;;;;;;7.55;4.00;;;;;;;27.86;40.16;101018.28;5083316;28;20083;-83
2022/07/03 10:57:21;;;;;;;5.78;3.53;;;;;;;27.83;39.92;101024.16;5083662;28;20048;-83
2022/07/03 11:00:00;;;;;;;7.25;3.60;;;;;;;27.74;39.74;101017.66;5083389;28;20111;-83
2022/07/03 11:02:30;;;;;;;8.10;3.47;;;;;;;28.02;39.50;101017.25;5085366;28;20055;-81
2022/07/03 11:05:10;;;;;;;7.55;3.88;;;;;;;27.97;39.78;101017.22;5082543;28;20079;-83
2022/07/03 11:07:45;;;;;;;7.60;3.80;;;;;;;27.56;39.87;101012.66;5084020;28;20076;-82
2022/07/03 11:10:40;;;;;;;6.38;3.40;;;;;;;27.77;41.37;101009.06;5083403;28;20052;-83
2022/07/03 11:13:09;;;;;;;5.88;3.40;;;;;;;27.89;40.00;101017.72;5082249;28;20059;-82
2022/07/03 11:15:40;;;;;;;6.00;3.65;;;;;;;27.65;40.17;101008.47;5082565;28;20275;-82
2022/07/03 11:18:13;;;;;;;5.90;3.42;;;;;;;27.23;40.96;100995.81;5082571;28;20049;-81
2022/07/03 11:21:01;;;;;;;5.20;3.58;;;;;;;27.76;40.37;101012.84;5082439;28;20052;-82
2022/07/03 11:23:34;;;;;;;5.13;3.08;;;;;;;27.66;39.06;100997.44;5064670;28;20055;-83
2022/07/03 11:26:03;;;;;;;4.95;3.25;;;;;;;27.61;39.24;100993.91;5080721;28;20098;-81
2022/07/03 11:28:52;;;;;;;4.28;3.38;;;;;;;27.80;40.10;100997.00;5081627;28;20158;-81
2022/07/03 11:31:21;;;;;;;5.05;2.92;;;;;;;28.14;38.55;100994.69;5081538;28;20091;-82
2022/07/03 11:33:50;;;;;;;3.50;2.88;;;;;;;27.56;39.19;100993.84;5081113;28;20045;-81
2022/07/03 11:36:26;;;;;;;6.63;3.20;;;;;;;27.98;39.16;100994.63;5081412;28;20098;-82
2022/07/03 11:39:14;;;;;;;6.53;3.67;;;;;;;27.83;39.39;101002.66;5082727;28;20055;-81
2022/07/03 11:41:45;;;;;;;6.35;3.47;;;;;;;28.00;39.06;100997.88;5082812;28;20471;-82
2022/07/03 11:44:18;;;;;;;4.80;2.85;;;;;;;28.00;38.40;100987.13;5081653;28;20084;-81
2022/07/03 11:46:52;;;;;;;4.65;3.25;;;;;;;27.53;39.41;100989.00;5081832;28;20076;-82
2022/07/03 11:49:20;;;;;;;7.82;4.45;;;;;;;27.59;40.11;100988.00;5081781;28;20044;-81
2022/07/03 11:51:58;;;;;;;7.78;3.15;;;;;;;27.50;39.54;100986.84;5082309;28;20049;-81
2022/07/03 11:54:30;;;;;;;7.75;3.30;;;;;;;27.74;39.07;100993.47;5082625;28;20048;-82
2022/07/03 11:56:57;;;;;;;5.88;2.75;;;;;;;27.90;38.64;100984.38;5085262;28;20075;-81
2022/07/03 11:59:25;;;;;;;6.20;3.00;;;;;;;28.21;38.95;100992.59;5090609;28;20052;-81
2022/07/03 12:01:52;;;;;;;9.02;3.08;;;;;;;28.22;37.59;100980.78;5084911;28;20113;-82
2022/07/03 12:04:32;;;;;;;6.03;3.45;;;;;;;28.03;37.96;100964.25;5081674;28;20052;-83
2022/07/03 12:07:00;;;;;;;6.63;2.90;;;;;;;27.75;37.63;100949.38;5081958;28;20048;-81
2022/07/03 12:09:30;;;;;;;6.13;2.78;;;;;;;28.01;38.89;100977.16;5081372;28;20052;-81
2022/07/03 12:12:07;;;;;;;4.45;2.85;;;;;;;27.95;38.01;100970.94;5082207;28;20052;-82
2022/07/03 12:14:41;;;;;;;7.30;3.50;;;;;;;28.26;38.13;100973.78;5082284;28;20048;-82
2022/07/03 12:17:13;;;;;;;6.45;3.40;;;;;;;27.78;38.84;100972.25;5081798;28;20052;-82
2022/07/03 12:19:46;;;;;;;6.75;3.75;;;;;;;27.62;38.17;100968.66;5081869;28;20124;-82
2022/07/03 12:22:13;;;;;;;5.28;3.08;;;;;;;27.37;38.57;100978.19;5082394;28;20045;-80
2022/07/03 12:24:41;;;;;;;5.30;2.95;;;;;;;27.88;37.91;100975.78;5081573;28;20044;-82
2022/07/03 12:27:08;;;;;;;6.32;3.22;;;;;;;28.00;38.21;100968.28;5082553;28;20044;-81
2022/07/03 12:29:35;;;;;;;11.85;7.25;;;;;;;27.95;38.10;100976.34;5083707;28;20052;-81
2022/07/03 12:32:09;;;;;;;6.50;4.47;;;;;;;27.79;38.15;100953.16;5081575;28;20049;-82
2022/07/03 12:34:37;;;;;;;4.82;3.38;;;;;;;27.77;38.74;100974.13;5083094;28;20428;-82
2022/07/03 12:37:04;;;;;;;4.95;2.95;;;;;;;27.64;38.34;100966.53;5081044;28;20501;-82
2022/07/03 12:39:47;;;;;;;6.07;2.70;;;;;;;27.07;39.64;100968.00;5080564;28;20075;-80
2022/07/03 12:42:18;;;;;;;11.45;6.85;;;;;;;27.38;38.75;100970.94;5081462;28;20079;-83
2022/07/03 12:44:57;;;;;;;6.13;4.10;;;;;;;27.35;38.56;100969.56;5081686;28;20093;-82
2022/07/03 12:47:25;;;;;;;4.32;3.08;;;;;;;27.28;39.51;100968.16;5081567;28;20075;-81
2022/07/03 12:49:57;;;;;;;4.43;2.60;;;;;;;27.17;39.14;100966.47;5081677;28;20072;-82